CheckWX is a tool to help pilots better visualize weather data.  It is not intended as a substitute for an official pre-flight weather briefing.

00:37:41 UTC

CYPA METAR
Prince Albert Glass Field Airport
Prince Albert, Canada
Current

38 mins ago

CYPA 170000Z 12004KT 15SM FEW070 FEW160 OVC250 19/14 A2991 RMK ACC1AS2CI6 ACC TR SLP138 DENSITY ALT 2300FT
Observed
Jul-17 @ 00:00 UTC
Wind
  • 120° at 4 KTS
Visibility
15 SM
Flight Rules
VFR
Cloud Levels
  • Few at 7,000' AGL
  • Few at 16,000' AGL
  • Overcast at 25,000' AGL
Temperature
19°C / 66°F
Dewpoint
14°C / 57°F
Humidity
73%
Altimeter
29.91" Hg
Pressure
1012.92 hPa
Previous

2 hours ago

CYPA 162300Z 15005KT 15SM FEW075 BKN160 19/13 A2992 RMK ACC1AS7 ACC TR SLP143 DENSITY ALT 2300FT
Observed
Jul-16 @ 23:00 UTC
Wind
  • 150° at 5 KTS
Visibility
15 SM
Flight Rules
VFR
Cloud Levels
  • Few at 7,500' AGL
  • Broken at 16,000' AGL
Temperature
19°C / 66°F
Dewpoint
13°C / 55°F
Humidity
68%
Altimeter
29.92" Hg
Pressure
1013.22 hPa
Previous

3 hours ago

CYPA 162200Z 15005KT 15SM FEW035 BKN160 BKN250 20/12 A2993 RMK SC1AC4CI2 CU ASOCTD SLP147 DENSITY ALT 2300FT
Observed
Jul-16 @ 22:00 UTC
Wind
  • 150° at 5 KTS
Visibility
15 SM
Flight Rules
VFR
Cloud Levels
  • Few at 3,500' AGL
  • Broken at 16,000' AGL
  • Broken at 25,000' AGL
Temperature
20°C / 68°F
Dewpoint
12°C / 54°F
Humidity
60%
Altimeter
29.93" Hg
Pressure
1013.52 hPa